الصفحة الرئيسية
METAR-TAF:

METAR-TAF

مطار :

Majuro, جزر مارشال

دائرة عرض: 07-04N, خط طول: 171-17E, ارتفاع: 2 متر

مراقبة الطقس الحالي

تاريخ ووقت الإصدار 4ساعات و 27 دقيقة قبل الساعة 23:52UTC
ريح 14 عقدة من الشمال
درجة الحرارة 30°درجة مئوية
الرطوبة 75%
ضغط 1007 hPa
الرؤية: 24.1 كم
غيوم قليلة على ارتفاع 1500 قدم
غيوم متفرقة على ارتفاع 5000 قدم
غيوم مفككة على ارتفاع 30000 قدم

METAR: PKMJ 172352Z 01014KT 15SM FEW015 SCT050 BKN300 30/25 A2975 RMK LAST

زمن: 16:19 (04:19 UTC)

توقعات

تاريخ ووقت الإصدار 2ساعات و 25 دقيقة قبل الساعة 01:54UTC
التوقعات صالحة من18 الساعة 02 UTC إلى 18 الساعة 24 UTC
ريح 15 عقدة من الشرق/الشمال الشرقي
الرؤية: 10 كم
غيوم قليلة على ارتفاع 1500 قدم
غيوم متفرقة على ارتفاع 5000 قدم
زخات في الجوار
مؤقت
من 18 الساعة 02 UTC إلى 18 الساعة 06 UTC
ريح 15 عقدة من الشرق/الشمال الشرقي تتزايد حتى 25 عقدة
الرؤية: 8.0 كم
غيوم مفككة على ارتفاع 1500 قدم
زخات من الأمطار الخفيفة

TAF: PKMJ 180154Z 1802/1824 06015KT P6SM VCSH FEW015 SCT050 TEMPO 1802/1806 06015G25KT 5SM -SHRA BKN015

أرصاد الطقس والتوقعات من أكثر من 4000 مطار (تقارير الطقس للمطار METAR والتنبؤ بالطقس بالمطارTAF).

المحطات المتاحة هي النقط الصفراء والحمراء على الخريطة.

حرك المؤشر فوق النقطة لمعرفة اسم المحطة.

ثم انقر لمعرفة أرصاد وتوقعات الطقس.

لتغيير الخارطة: اضغط على الأزرار الخضراء مع رمز الصليب الأسود للتكبير. على الزر الأخضر مع شرطة للتصغير، أو على الأسهم الخضراء للخرائط المجاورة.


METAR-TAF: